createdAt,value
2019-01-23T00:01:09.205Z,62.55
2019-01-23T00:02:13.299Z,64.17
2019-01-23T00:03:17.618Z,62.30
2019-01-23T00:04:21.543Z,62.33
2019-01-23T00:05:25.530Z,59.63
2019-01-23T00:06:29.519Z,63.98
2019-01-23T00:07:33.828Z,65.52
2019-01-23T00:08:37.754Z,66.15
2019-01-23T00:09:41.743Z,60.63
2019-01-23T00:10:45.987Z,67.00
2019-01-23T00:11:50.135Z,61.77
2019-01-23T00:12:54.343Z,72.35
2019-01-23T00:13:58.344Z,63.73
2019-01-23T00:15:02.332Z,71.40
2019-01-23T00:16:06.418Z,76.33
2019-01-23T00:17:10.598Z,67.25
2019-01-23T00:18:14.591Z,72.60
2019-01-23T00:19:18.603Z,71.22
2019-01-23T00:20:22.695Z,70.90
2019-01-23T00:21:26.687Z,70.28
2019-01-23T00:22:30.530Z,71.12
2019-01-23T00:23:34.469Z,76.92
2019-01-23T00:24:38.562Z,67.60
2019-01-23T00:25:43.020Z,69.17
2019-01-23T00:26:47.275Z,67.97
2019-01-23T00:27:51.269Z,67.50
2019-01-23T00:28:55.126Z,64.05
2019-01-23T00:29:58.973Z,62.40
2019-01-23T00:31:02.983Z,68.85
2019-01-23T00:32:07.186Z,65.15
2019-01-23T00:33:11.099Z,62.13
2019-01-23T00:34:15.655Z,66.95
2019-01-23T00:35:19.895Z,69.25
2019-01-23T00:36:23.806Z,74.22
2019-01-23T00:37:27.887Z,68.47
2019-01-23T00:38:32.206Z,67.95
2019-01-23T00:39:36.152Z,67.87
2019-01-23T00:40:40.143Z,64.62
2019-01-23T00:41:44.447Z,65.35
2019-01-23T00:42:48.443Z,67.53
2019-01-23T00:43:52.622Z,69.22
2019-01-23T00:44:56.475Z,70.72
2019-01-23T00:46:00.459Z,63.42
2019-01-23T00:47:04.707Z,65.30
2019-01-23T00:48:08.690Z,66.77
2019-01-23T00:49:12.619Z,63.98
2019-01-23T00:50:16.934Z,63.50
2019-01-23T00:51:20.851Z,72.05
2019-01-23T00:52:24.770Z,67.25
2019-01-23T00:53:29.018Z,66.17
2019-01-23T00:54:33.387Z,59.77
2019-01-23T00:55:37.651Z,64.62
2019-01-23T00:56:41.809Z,62.58
2019-01-23T00:57:46.089Z,68.85
2019-01-23T00:58:49.932Z,68.17
2019-01-23T00:59:54.017Z,65.70
2019-01-23T01:00:58.002Z,67.90
2019-01-23T01:02:01.991Z,67.08
2019-01-23T01:03:06.091Z,63.25
2019-01-23T01:04:10.508Z,70.45
2019-01-23T01:05:15.519Z,66.97
2019-01-23T01:06:19.516Z,67.82
2019-01-23T01:07:23.508Z,64.50
2019-01-23T01:08:27.499Z,70.67
2019-01-23T01:09:31.491Z,67.55
2019-01-23T01:10:35.755Z,59.18
2019-01-23T01:11:39.744Z,70.83
2019-01-23T01:12:43.739Z,67.85
2019-01-23T01:13:47.731Z,61.58
2019-01-23T01:14:51.724Z,65.08
2019-01-23T01:15:55.810Z,61.95
2019-01-23T01:16:59.728Z,66.80
2019-01-23T01:18:03.724Z,64.40
2019-01-23T01:19:07.764Z,70.42
2019-01-23T01:20:12.447Z,67.70
2019-01-23T01:21:16.850Z,63.50
2019-01-23T01:22:20.844Z,69.77
2019-01-23T01:23:24.779Z,66.65
2019-01-23T01:24:29.075Z,67.22
2019-01-23T01:25:33.067Z,68.15
2019-01-23T01:26:36.978Z,70.05
2019-01-23T01:27:40.975Z,64.62
2019-01-23T01:28:44.983Z,66.33
2019-01-23T01:29:49.372Z,66.37
2019-01-23T01:30:53.598Z,66.30
2019-01-23T01:31:57.590Z,65.08
2019-01-23T01:33:01.884Z,61.65
2019-01-23T01:34:06.094Z,60.88
2019-01-23T01:35:10.331Z,60.15
2019-01-23T01:36:14.259Z,63.25
2019-01-23T01:37:18.494Z,60.08
2019-01-23T01:38:23.123Z,58.28
2019-01-23T01:39:27.289Z,59.95
2019-01-23T01:40:31.350Z,60.48
2019-01-23T01:41:35.604Z,57.65
2019-01-23T01:42:39.597Z,63.02
2019-01-23T01:43:43.515Z,63.78
2019-01-23T01:44:47.499Z,61.45
2019-01-23T01:45:51.510Z,62.00
2019-01-23T01:46:55.490Z,62.23
2019-01-23T01:47:59.399Z,65.52
2019-01-23T01:49:03.246Z,63.00
2019-01-23T01:50:10.123Z,59.90
2019-01-23T01:51:14.131Z,56.75
2019-01-23T01:52:17.970Z,60.75
2019-01-23T01:53:21.812Z,58.73
2019-01-23T01:54:25.967Z,62.93
2019-01-23T01:55:29.899Z,58.83
2019-01-23T01:56:34.152Z,58.98
2019-01-23T01:57:38.139Z,59.95
2019-01-23T01:58:42.386Z,57.65
2019-01-23T01:59:46.300Z,62.27
2019-01-23T02:00:50.293Z,59.70
2019-01-23T02:01:54.290Z,62.70
2019-01-23T02:02:58.519Z,64.12
2019-01-23T02:04:03.036Z,59.25
2019-01-23T02:05:07.742Z,60.05
2019-01-23T02:06:11.758Z,63.55
2019-01-23T02:07:15.743Z,62.03
2019-01-23T02:08:19.982Z,59.83
2019-01-23T02:09:23.822Z,61.65
2019-01-23T02:10:28.069Z,62.10
2019-01-23T02:11:31.923Z,64.75
2019-01-23T02:12:35.837Z,63.45
2019-01-23T02:13:39.747Z,62.25
2019-01-23T02:14:43.670Z,61.50
2019-01-23T02:15:47.582Z,59.63
2019-01-23T02:16:51.587Z,61.02
2019-01-23T02:17:55.494Z,59.75
2019-01-23T02:18:59.336Z,63.02
2019-01-23T02:20:03.274Z,61.15
2019-01-23T02:21:07.866Z,62.67
2019-01-23T02:22:11.871Z,62.53
2019-01-23T02:23:15.784Z,58.65
2019-01-23T02:24:19.697Z,65.52
2019-01-23T02:25:23.699Z,62.45
2019-01-23T02:26:27.971Z,61.10
2019-01-23T02:27:32.282Z,64.12
2019-01-23T02:28:36.186Z,64.00
2019-01-23T02:29:40.382Z,66.28
2019-01-23T02:30:44.374Z,63.50
2019-01-23T02:31:48.295Z,70.20
2019-01-23T02:32:52.300Z,65.70
2019-01-23T02:33:56.148Z,62.73
2019-01-23T02:35:00.493Z,59.77
2019-01-23T02:36:04.803Z,65.50
2019-01-23T02:37:09.007Z,61.70
2019-01-23T02:38:13.394Z,64.42
2019-01-23T02:39:17.551Z,62.43
2019-01-23T02:40:22.968Z,64.42
2019-01-23T02:41:26.962Z,66.50
2019-01-23T02:42:30.811Z,60.40
2019-01-23T02:43:35.062Z,64.40
2019-01-23T02:44:39.369Z,65.92
2019-01-23T02:45:43.367Z,64.87
2019-01-23T02:46:47.362Z,65.97
2019-01-23T02:47:51.418Z,66.57
2019-01-23T02:48:55.655Z,66.10
2019-01-23T02:49:59.502Z,63.63
2019-01-23T02:51:03.525Z,68.25
2019-01-23T02:52:07.486Z,61.98
2019-01-23T02:53:11.788Z,62.38
2019-01-23T02:54:15.954Z,65.00
2019-01-23T02:55:20.193Z,66.87
2019-01-23T02:56:24.527Z,61.18
2019-01-23T02:57:28.583Z,60.60
2019-01-23T02:58:32.435Z,64.92
2019-01-23T02:59:36.353Z,64.58
2019-01-23T03:00:40.630Z,65.83
2019-01-23T03:01:44.627Z,66.22
2019-01-23T03:02:50.704Z,63.10
2019-01-23T03:03:54.704Z,67.27
2019-01-23T03:04:58.694Z,64.05
2019-01-23T03:06:02.762Z,63.48
2019-01-23T03:07:06.734Z,65.47
2019-01-23T03:08:11.243Z,64.17
2019-01-23T03:09:15.268Z,61.45
2019-01-23T03:10:21.278Z,64.17
2019-01-23T03:11:25.210Z,64.53
2019-01-23T03:12:29.201Z,59.35
2019-01-23T03:13:33.427Z,62.08
2019-01-23T03:14:37.419Z,63.10
2019-01-23T03:15:41.343Z,60.67
2019-01-23T03:16:45.355Z,61.08
2019-01-23T03:17:49.348Z,63.75
2019-01-23T03:18:53.212Z,63.13
2019-01-23T03:19:57.208Z,56.68
2019-01-23T03:21:01.204Z,60.10
2019-01-23T03:22:05.565Z,58.50
2019-01-23T03:23:09.804Z,60.45
2019-01-23T03:24:13.734Z,60.23
2019-01-23T03:25:18.134Z,59.88
2019-01-23T03:26:22.262Z,55.92
2019-01-23T03:27:26.182Z,59.58
2019-01-23T03:28:30.683Z,58.30
2019-01-23T03:29:34.522Z,60.50
2019-01-23T03:30:38.441Z,60.03
2019-01-23T03:31:42.357Z,61.48
2019-01-23T03:32:46.600Z,56.98
2019-01-23T03:33:50.573Z,61.90
2019-01-23T03:34:55.058Z,61.73
2019-01-23T03:35:59.045Z,59.25
2019-01-23T03:37:02.960Z,59.85
2019-01-23T03:38:06.879Z,60.25
2019-01-23T03:39:11.055Z,66.67
2019-01-23T03:40:17.008Z,59.35
2019-01-23T03:41:21.247Z,57.75
2019-01-23T03:42:25.159Z,60.67
2019-01-23T03:43:29.320Z,58.68
2019-01-23T03:44:33.316Z,62.23
2019-01-23T03:45:37.310Z,59.42
2019-01-23T03:46:41.535Z,57.98
2019-01-23T03:47:45.769Z,63.50
2019-01-23T03:48:50.196Z,59.27
2019-01-23T03:49:54.360Z,56.88
2019-01-23T03:50:58.344Z,57.67
2019-01-23T03:52:02.263Z,59.38
2019-01-23T03:53:06.500Z,64.22
2019-01-23T03:54:10.749Z,65.08
2019-01-23T03:55:15.310Z,56.20
2019-01-23T03:56:19.296Z,59.58
2019-01-23T03:57:23.785Z,62.10
2019-01-23T03:58:27.697Z,61.85
2019-01-23T03:59:32.293Z,59.08
2019-01-23T04:00:36.712Z,62.98
2019-01-23T04:01:40.695Z,63.13
2019-01-23T04:02:44.723Z,58.50
2019-01-23T04:03:48.708Z,59.95
2019-01-23T04:04:52.574Z,59.23
2019-01-23T04:05:56.488Z,61.92
2019-01-23T04:07:00.656Z,62.05
2019-01-23T04:08:04.639Z,60.28
2019-01-23T04:09:09.022Z,60.70
2019-01-23T04:10:14.604Z,60.98
2019-01-23T04:11:18.635Z,59.18
2019-01-23T04:12:22.622Z,61.18
2019-01-23T04:13:26.614Z,61.68
2019-01-23T04:14:30.544Z,58.68
2019-01-23T04:15:34.804Z,50.20
2019-01-23T04:16:38.786Z,57.17
2019-01-23T04:17:43.115Z,57.23
2019-01-23T04:18:47.030Z,58.75
2019-01-23T04:19:50.960Z,60.03
2019-01-23T04:20:54.959Z,60.15
2019-01-23T04:21:59.022Z,64.03
2019-01-23T04:23:03.326Z,61.05
2019-01-23T04:24:07.482Z,60.58
2019-01-23T04:25:12.155Z,60.17
2019-01-23T04:26:16.333Z,67.40
2019-01-23T04:27:20.247Z,59.95
2019-01-23T04:28:24.500Z,64.70
2019-01-23T04:29:28.411Z,54.20
2019-01-23T04:30:32.963Z,57.98
2019-01-23T04:31:36.884Z,61.50
2019-01-23T04:32:40.802Z,59.30
2019-01-23T04:33:44.774Z,58.73
2019-01-23T04:34:48.615Z,55.40
2019-01-23T04:35:52.838Z,57.73
2019-01-23T04:36:57.181Z,57.15
2019-01-23T04:38:01.113Z,58.58
2019-01-23T04:39:07.900Z,58.33
2019-01-23T04:40:12.300Z,57.95
2019-01-23T04:41:16.559Z,59.48
2019-01-23T04:42:20.557Z,56.63
2019-01-23T04:43:24.558Z,53.95
2019-01-23T04:44:28.480Z,60.60
2019-01-23T04:45:32.492Z,54.30
2019-01-23T04:46:36.487Z,57.23
2019-01-23T04:47:40.869Z,53.75
2019-01-23T04:48:44.790Z,54.88
2019-01-23T04:49:48.714Z,58.48
2019-01-23T04:51:20.880Z,58.80
2019-01-23T04:52:39.302Z,52.67
2019-01-23T04:53:45.291Z,57.43
2019-01-23T04:54:49.420Z,59.60
2019-01-23T04:55:53.696Z,59.42
2019-01-23T04:56:57.868Z,57.08
2019-01-23T04:58:01.706Z,57.48
2019-01-23T04:59:05.618Z,54.98
2019-01-23T05:00:11.823Z,57.20
2019-01-23T05:01:15.829Z,54.77
2019-01-23T05:02:20.144Z,56.73
2019-01-23T05:03:24.505Z,60.92
2019-01-23T05:04:28.834Z,56.63
2019-01-23T05:05:32.909Z,53.10
2019-01-23T05:06:37.428Z,56.08
2019-01-23T05:07:41.407Z,60.15
2019-01-23T05:08:45.737Z,56.83
2019-01-23T05:09:49.654Z,60.70
2019-01-23T05:10:53.579Z,59.18
2019-01-23T05:11:57.563Z,53.73
2019-01-23T05:13:01.664Z,53.80
2019-01-23T05:14:05.923Z,59.27
2019-01-23T05:15:09.932Z,56.25
2019-01-23T05:16:13.931Z,61.08
2019-01-23T05:17:17.849Z,56.48
2019-01-23T05:18:22.086Z,56.63
2019-01-23T05:19:25.999Z,56.48
2019-01-23T05:20:30.425Z,57.40
2019-01-23T05:21:34.344Z,57.50
2019-01-23T05:22:38.628Z,56.37
2019-01-23T05:23:42.541Z,54.95
2019-01-23T05:24:46.466Z,56.20
2019-01-23T05:25:50.489Z,56.80
2019-01-23T05:26:54.486Z,58.90
2019-01-23T05:27:58.407Z,57.60
2019-01-23T05:29:02.555Z,59.23
2019-01-23T05:30:09.046Z,57.50
2019-01-23T05:31:13.127Z,60.25
2019-01-23T05:32:17.443Z,57.00
2019-01-23T05:33:21.457Z,61.85
2019-01-23T05:34:25.956Z,57.75
2019-01-23T05:35:29.948Z,61.68
2019-01-23T05:36:33.952Z,56.35
2019-01-23T05:37:37.936Z,61.13
2019-01-23T05:38:41.847Z,62.45
2019-01-23T05:39:45.690Z,60.88
2019-01-23T05:40:49.993Z,61.63
2019-01-23T05:41:53.815Z,57.60
2019-01-23T05:42:57.803Z,56.53
2019-01-23T05:44:01.965Z,60.33
2019-01-23T05:45:06.488Z,63.90
2019-01-23T05:46:10.547Z,61.05
2019-01-23T05:47:14.553Z,60.92
2019-01-23T05:48:18.684Z,59.48
2019-01-23T05:49:22.605Z,65.25
2019-01-23T05:50:26.595Z,63.75
2019-01-23T05:51:30.600Z,66.37
2019-01-23T05:52:34.592Z,64.87
2019-01-23T05:53:38.502Z,60.83
2019-01-23T05:54:42.688Z,62.73
2019-01-23T05:55:46.601Z,62.48
2019-01-23T05:56:50.790Z,69.42
2019-01-23T05:57:54.948Z,64.82
2019-01-23T05:58:59.155Z,69.75
2019-01-23T06:00:03.226Z,65.83
2019-01-23T06:01:07.234Z,65.03
2019-01-23T06:02:11.237Z,59.67
2019-01-23T06:03:15.175Z,68.50
2019-01-23T06:04:19.163Z,63.95
2019-01-23T06:05:23.157Z,66.05
2019-01-23T06:06:28.035Z,65.92
2019-01-23T06:07:32.406Z,74.37
2019-01-23T06:08:36.604Z,65.90
2019-01-23T06:09:40.852Z,66.70
2019-01-23T06:10:44.917Z,64.12
2019-01-23T06:11:49.270Z,69.30
2019-01-23T06:12:53.250Z,66.00
2019-01-23T06:13:57.214Z,64.40
2019-01-23T06:15:01.374Z,66.00
2019-01-23T06:16:05.623Z,67.55
2019-01-23T06:17:09.806Z,68.07
2019-01-23T06:18:13.872Z,69.00
2019-01-23T06:19:17.867Z,65.25
2019-01-23T06:20:22.289Z,65.32
2019-01-23T06:21:26.418Z,58.83
2019-01-23T06:22:30.708Z,64.30
2019-01-23T06:23:34.700Z,62.55
2019-01-23T06:24:39.275Z,63.65
2019-01-23T06:25:43.562Z,60.17
2019-01-23T06:26:48.396Z,59.45
2019-01-23T06:27:52.418Z,66.17
2019-01-23T06:28:56.347Z,62.20
2019-01-23T06:30:00.691Z,60.75
2019-01-23T06:31:04.690Z,64.50
2019-01-23T06:32:08.983Z,59.30
2019-01-23T06:33:13.275Z,65.67
2019-01-23T06:34:17.540Z,62.45
2019-01-23T06:35:21.535Z,60.03
2019-01-23T06:36:26.097Z,63.85
2019-01-23T06:37:30.386Z,65.87
2019-01-23T06:38:34.561Z,57.15
2019-01-23T06:39:38.524Z,60.58
2019-01-23T06:40:42.635Z,58.55
2019-01-23T06:41:46.633Z,61.20
2019-01-23T06:42:50.642Z,66.00
2019-01-23T06:43:54.509Z,63.80
2019-01-23T06:44:58.577Z,64.22
2019-01-23T06:46:02.608Z,62.30
2019-01-23T06:47:06.553Z,63.10
2019-01-23T06:48:10.923Z,63.02
2019-01-23T06:49:14.951Z,60.30
2019-01-23T06:50:20.670Z,67.22
2019-01-23T06:51:24.977Z,59.00
2019-01-23T06:52:28.906Z,66.57
2019-01-23T06:53:32.828Z,67.60
2019-01-23T06:54:36.824Z,59.25
2019-01-23T06:55:40.817Z,60.33
2019-01-23T06:56:45.083Z,55.43
2019-01-23T06:57:49.469Z,61.73
2019-01-23T06:58:53.459Z,62.70
2019-01-23T06:59:57.699Z,63.13
2019-01-23T07:01:01.931Z,61.25
2019-01-23T07:02:05.915Z,67.25
2019-01-23T07:03:09.916Z,66.00
2019-01-23T07:04:13.832Z,71.02
2019-01-23T07:05:18.076Z,71.82
2019-01-23T07:06:22.563Z,66.05
2019-01-23T07:07:26.481Z,65.57
2019-01-23T07:08:30.454Z,63.50
2019-01-23T07:09:34.323Z,64.90
2019-01-23T07:10:38.311Z,68.33
2019-01-23T07:11:42.318Z,67.67
2019-01-23T07:12:46.254Z,66.02
2019-01-23T07:13:50.183Z,63.75
2019-01-23T07:14:54.348Z,60.00
2019-01-23T07:15:58.588Z,65.87
2019-01-23T07:17:02.578Z,62.08
2019-01-23T07:18:06.577Z,61.25
2019-01-23T07:19:10.575Z,62.55
2019-01-23T07:20:17.121Z,62.58
2019-01-23T07:21:21.034Z,63.50
2019-01-23T07:22:25.303Z,70.20
2019-01-23T07:23:29.347Z,69.67
2019-01-23T07:24:33.261Z,64.92
2019-01-23T07:25:37.327Z,66.70
2019-01-23T07:26:41.394Z,71.37
2019-01-23T07:27:45.921Z,62.83
2019-01-23T07:28:49.842Z,66.42
2019-01-23T07:29:53.774Z,70.60
2019-01-23T07:30:57.697Z,68.87
2019-01-23T07:32:01.778Z,69.67
2019-01-23T07:33:05.863Z,72.47
2019-01-23T07:34:09.819Z,73.12
2019-01-23T07:35:13.887Z,74.40
2019-01-23T07:36:17.736Z,77.10
2019-01-23T07:37:21.661Z,69.45
2019-01-23T07:38:25.895Z,71.33
2019-01-23T07:39:30.134Z,77.12
2019-01-23T07:40:34.174Z,66.92
2019-01-23T07:41:38.351Z,66.80
2019-01-23T07:42:42.398Z,71.25
2019-01-23T07:43:46.602Z,69.95
2019-01-23T07:44:50.473Z,69.42
2019-01-23T07:45:54.458Z,77.67
2019-01-23T07:46:58.866Z,67.95
2019-01-23T07:48:02.870Z,59.93
2019-01-23T07:49:07.068Z,62.45
2019-01-23T07:50:12.043Z,58.02
2019-01-23T07:51:15.966Z,67.67
2019-01-23T07:52:19.893Z,70.00
2019-01-23T07:53:23.879Z,65.40
2019-01-23T07:54:28.091Z,64.90
2019-01-23T07:55:32.088Z,73.60
2019-01-23T07:56:36.087Z,72.17
2019-01-23T07:57:40.082Z,62.65
2019-01-23T07:58:44.011Z,73.62
2019-01-23T07:59:47.929Z,68.83
2019-01-23T08:00:52.506Z,71.82
2019-01-23T08:01:56.598Z,63.80
2019-01-23T08:03:00.560Z,66.22
2019-01-23T08:04:04.552Z,69.70
2019-01-23T08:05:10.285Z,69.47
2019-01-23T08:06:14.278Z,62.85
2019-01-23T08:07:18.278Z,64.37
2019-01-23T08:08:22.459Z,68.47
2019-01-23T08:09:26.345Z,66.75
2019-01-23T08:10:30.415Z,72.58
2019-01-23T08:11:34.415Z,79.17
2019-01-23T08:12:38.773Z,71.77
2019-01-23T08:13:42.847Z,71.22
2019-01-23T08:14:47.387Z,68.10
2019-01-23T08:15:51.329Z,78.60
2019-01-23T08:16:55.380Z,70.97
2019-01-23T08:17:59.655Z,72.42
2019-01-23T08:19:04.008Z,78.92
2019-01-23T08:20:10.391Z,94.05
2019-01-23T08:21:14.723Z,79.22
2019-01-23T08:22:19.078Z,61.70
2019-01-23T08:23:23.070Z,78.20
2019-01-23T08:24:27.072Z,69.60
2019-01-23T08:25:31.699Z,72.00
2019-01-23T08:26:35.676Z,74.27
2019-01-23T08:27:39.509Z,71.17
2019-01-23T08:28:43.339Z,69.90
2019-01-23T08:29:47.321Z,74.03
2019-01-23T08:30:51.500Z,64.53
2019-01-23T08:31:55.858Z,66.42
2019-01-23T08:32:59.847Z,71.35
2019-01-23T08:34:03.826Z,76.47
2019-01-23T08:35:08.932Z,71.47
2019-01-23T08:36:13.154Z,74.45
2019-01-23T08:37:17.391Z,70.97
2019-01-23T08:38:21.620Z,75.75
2019-01-23T08:39:25.947Z,74.77
2019-01-23T08:40:29.935Z,72.50
2019-01-23T08:41:34.330Z,77.53
2019-01-23T08:42:38.565Z,75.87
2019-01-23T08:43:42.899Z,83.03
2019-01-23T08:44:46.914Z,77.80
2019-01-23T08:45:50.803Z,74.70
2019-01-23T08:46:54.709Z,72.08
2019-01-23T08:47:58.944Z,70.47
2019-01-23T08:49:03.358Z,75.62
2019-01-23T08:50:15.481Z,89.70
2019-01-23T08:51:19.410Z,140.35
2019-01-23T08:52:23.824Z,102.95
2019-01-23T08:53:28.067Z,90.60
2019-01-23T08:54:31.972Z,75.80
2019-01-23T08:55:35.899Z,108.78
2019-01-23T08:56:40.591Z,82.25
2019-01-23T08:57:44.591Z,90.62
2019-01-23T08:58:48.786Z,85.45
2019-01-23T08:59:52.919Z,76.95
2019-01-23T09:00:56.903Z,86.75
2019-01-23T09:02:01.399Z,100.85
2019-01-23T09:03:06.426Z,109.27
2019-01-23T09:04:10.342Z,95.45
2019-01-23T09:05:14.895Z,114.05
2019-01-23T09:06:19.420Z,101.60
2019-01-23T09:07:23.871Z,93.52
2019-01-23T09:08:28.016Z,99.30
2019-01-23T09:09:32.272Z,122.72
2019-01-23T09:10:36.533Z,134.52
2019-01-23T09:11:40.541Z,120.40
2019-01-23T09:12:45.150Z,128.30
2019-01-23T09:13:49.052Z,110.40
2019-01-23T09:14:53.149Z,100.87
2019-01-23T09:15:57.191Z,82.00
2019-01-23T09:17:01.169Z,75.20
2019-01-23T09:18:07.057Z,79.80
2019-01-23T09:19:11.220Z,84.30
2019-01-23T09:20:16.229Z,89.25
2019-01-23T09:21:20.155Z,113.35
2019-01-23T09:22:24.027Z,97.42
2019-01-23T09:23:28.020Z,75.35
2019-01-23T09:24:31.936Z,100.60
2019-01-23T09:25:36.533Z,84.75
2019-01-23T09:26:40.742Z,134.35
2019-01-23T09:27:44.668Z,104.87
2019-01-23T09:28:48.896Z,97.35
2019-01-23T09:29:53.132Z,123.45
2019-01-23T09:31:53.821Z,129.07
2019-01-23T09:33:10.690Z,118.62
2019-01-23T09:35:08.071Z,121.95
2019-01-23T09:36:41.223Z,88.05
2019-01-23T09:38:17.191Z,84.75
2019-01-23T09:40:00.918Z,87.30
2019-01-23T09:41:23.615Z,86.20
2019-01-23T09:43:08.732Z,88.75
2019-01-23T09:44:53.976Z,86.75
2019-01-23T09:46:48.372Z,114.75
2019-01-23T09:48:26.458Z,100.67
2019-01-23T09:50:20.298Z,98.25
2019-01-23T09:52:21.146Z,116.40
2019-01-23T09:53:32.827Z,111.72
2019-01-23T09:54:37.163Z,109.40
2019-01-23T09:55:42.084Z,127.22
2019-01-23T09:56:48.644Z,110.10
2019-01-23T09:57:58.196Z,87.27
2019-01-23T09:59:02.901Z,74.50
2019-01-23T10:00:09.963Z,101.92
2019-01-23T10:01:13.960Z,171.00
2019-01-23T10:02:18.527Z,127.80
2019-01-23T10:03:23.063Z,129.05
2019-01-23T10:04:27.271Z,95.35
2019-01-23T10:05:31.548Z,95.97
2019-01-23T10:06:35.786Z,88.00
2019-01-23T10:07:40.422Z,90.55
2019-01-23T10:08:44.634Z,99.05
2019-01-23T10:09:48.619Z,120.20
2019-01-23T10:10:52.868Z,122.35
2019-01-23T10:11:56.863Z,144.17
2019-01-23T10:13:00.858Z,110.75
2019-01-23T10:14:04.969Z,89.17
2019-01-23T10:15:13.260Z,100.50
2019-01-23T10:16:19.292Z,100.53
2019-01-23T10:17:23.230Z,96.53
2019-01-23T10:18:27.468Z,104.85
2019-01-23T10:19:31.306Z,96.05
2019-01-23T10:20:35.298Z,99.77
2019-01-23T10:21:39.534Z,97.35
2019-01-23T10:22:43.539Z,97.55
2019-01-23T10:23:47.445Z,99.35
2019-01-23T10:24:51.361Z,101.22
2019-01-23T10:25:55.217Z,99.13
2019-01-23T10:26:59.449Z,103.53
2019-01-23T10:28:03.693Z,103.80
2019-01-23T10:29:07.601Z,114.00
2019-01-23T10:30:12.367Z,101.62
2019-01-23T10:31:16.354Z,101.18
2019-01-23T10:32:20.433Z,90.85
2019-01-23T10:33:24.359Z,81.12
2019-01-23T10:34:28.274Z,82.72
2019-01-23T10:35:32.184Z,91.17
2019-01-23T10:36:36.099Z,88.50
2019-01-23T10:37:40.087Z,86.53
2019-01-23T10:38:44.266Z,86.47
2019-01-23T10:39:48.431Z,88.25
2019-01-23T10:40:52.418Z,95.57
2019-01-23T10:41:56.579Z,97.45
2019-01-23T10:43:01.063Z,96.45
2019-01-23T10:44:05.091Z,93.40
2019-01-23T10:45:10.428Z,94.10
2019-01-23T10:46:14.416Z,94.15
2019-01-23T10:47:18.334Z,101.20
2019-01-23T10:48:22.203Z,102.78
2019-01-23T10:49:26.689Z,96.78
2019-01-23T10:50:30.601Z,98.10
2019-01-23T10:51:34.841Z,110.60
2019-01-23T10:52:39.018Z,91.87
2019-01-23T10:53:43.010Z,97.00
2019-01-23T10:54:46.851Z,96.15
2019-01-23T10:55:50.835Z,89.95
2019-01-23T10:56:54.921Z,87.30
2019-01-23T10:57:59.184Z,90.03
2019-01-23T10:59:03.183Z,93.05
2019-01-23T11:00:10.851Z,97.40
2019-01-23T11:01:14.845Z,194.05
2019-01-23T11:02:18.760Z,89.95
2019-01-23T11:03:23.004Z,743.42
2019-01-23T11:04:27.012Z,771.70
2019-01-23T11:05:31.010Z,203.47
2019-01-23T11:06:35.200Z,171.57
2019-01-23T11:07:39.115Z,127.17
2019-01-23T11:08:43.061Z,111.28
2019-01-23T11:09:47.054Z,111.40
2019-01-23T11:10:50.962Z,93.78
2019-01-23T11:11:54.952Z,126.62
2019-01-23T11:12:58.876Z,112.03
2019-01-23T11:14:03.065Z,90.97
2019-01-23T11:15:07.278Z,87.17
2019-01-23T11:16:11.195Z,87.17
2019-01-23T11:17:15.190Z,87.80
2019-01-23T11:18:19.566Z,84.45
2019-01-23T11:19:23.581Z,87.72
2019-01-23T11:20:27.575Z,84.83
2019-01-23T11:21:31.569Z,84.97
2019-01-23T11:22:35.883Z,82.57
2019-01-23T11:23:40.103Z,86.65
2019-01-23T11:24:44.566Z,95.55
2019-01-23T11:25:48.515Z,95.77
2019-01-23T11:26:52.433Z,95.20
2019-01-23T11:27:56.772Z,90.80
2019-01-23T11:29:00.754Z,83.47
2019-01-23T11:30:06.544Z,81.97
2019-01-23T11:31:10.536Z,79.72
2019-01-23T11:32:14.382Z,88.40
2019-01-23T11:33:18.279Z,83.78
2019-01-23T11:34:22.870Z,82.57
2019-01-23T11:35:26.870Z,89.60
2019-01-23T11:36:30.859Z,87.47
2019-01-23T11:37:34.859Z,93.70
2019-01-23T11:38:39.131Z,88.95
2019-01-23T11:39:43.067Z,82.88
2019-01-23T11:40:47.744Z,88.33
2019-01-23T11:41:51.739Z,88.45
2019-01-23T11:42:55.665Z,89.67
2019-01-23T11:43:59.959Z,94.37
2019-01-23T11:45:04.855Z,93.78
2019-01-23T11:46:09.287Z,84.97
2019-01-23T11:47:13.206Z,86.50
2019-01-23T11:48:17.127Z,86.17
2019-01-23T11:49:21.463Z,79.27
2019-01-23T11:50:25.876Z,87.35
2019-01-23T11:51:29.987Z,85.12
2019-01-23T11:52:33.915Z,80.35
2019-01-23T11:53:38.581Z,77.42
2019-01-23T11:54:42.830Z,80.22
2019-01-23T11:55:47.041Z,76.57
2019-01-23T11:56:51.136Z,81.25
2019-01-23T11:57:55.056Z,83.62
2019-01-23T11:58:59.422Z,85.45
2019-01-23T12:00:03.967Z,86.25
2019-01-23T12:01:08.374Z,84.42
2019-01-23T12:02:12.783Z,85.42
2019-01-23T12:03:20.827Z,82.92
2019-01-23T12:04:22.668Z,87.75
2019-01-23T12:05:26.670Z,89.13
2019-01-23T12:06:30.666Z,81.97
2019-01-23T12:07:34.659Z,82.97
2019-01-23T12:08:38.655Z,83.47
2019-01-23T12:09:43.043Z,83.17
2019-01-23T12:10:46.977Z,80.55
2019-01-23T12:11:51.251Z,84.07
2019-01-23T12:12:55.313Z,88.82
2019-01-23T12:13:59.455Z,82.10
2019-01-23T12:15:03.522Z,84.42
2019-01-23T12:16:07.869Z,56.00
2019-01-23T12:17:12.195Z,81.28
2019-01-23T12:18:16.192Z,80.83
2019-01-23T12:19:20.093Z,81.97
2019-01-23T12:20:24.095Z,81.42
2019-01-23T12:21:28.796Z,79.67
2019-01-23T12:22:32.723Z,79.42
2019-01-23T12:23:37.001Z,83.70
2019-01-23T12:24:41.411Z,84.37
2019-01-23T12:25:45.719Z,84.80
2019-01-23T12:26:50.335Z,83.90
2019-01-23T12:27:54.339Z,88.35
2019-01-23T12:28:58.289Z,87.97
2019-01-23T12:30:02.651Z,92.88
2019-01-23T12:31:07.022Z,93.78
2019-01-23T12:32:11.027Z,97.37
2019-01-23T12:33:15.366Z,98.97
2019-01-23T12:34:19.672Z,95.62
2019-01-23T12:35:23.671Z,82.75
2019-01-23T12:36:27.675Z,88.22
2019-01-23T12:37:31.596Z,90.00
2019-01-23T12:38:35.630Z,87.95
2019-01-23T12:39:39.551Z,88.60
2019-01-23T12:40:43.765Z,91.78
2019-01-23T12:41:47.788Z,87.62
2019-01-23T12:42:51.881Z,87.20
2019-01-23T12:43:55.943Z,86.22
2019-01-23T12:45:00.008Z,93.75
2019-01-23T12:46:04.498Z,87.25
2019-01-23T12:47:08.912Z,86.05
2019-01-23T12:48:12.946Z,81.30
2019-01-23T12:49:17.219Z,87.42
2019-01-23T12:50:27.046Z,86.63
2019-01-23T12:51:31.051Z,89.77
2019-01-23T12:52:35.539Z,87.12
2019-01-23T12:53:39.703Z,90.62
2019-01-23T12:54:43.615Z,87.50
2019-01-23T12:55:47.897Z,87.05
2019-01-23T12:56:52.170Z,95.53
2019-01-23T12:57:56.910Z,92.10
2019-01-23T12:59:00.798Z,90.85
2019-01-23T13:00:06.626Z,97.80
2019-01-23T13:01:10.610Z,93.17
2019-01-23T13:02:14.851Z,79.20
2019-01-23T13:03:19.394Z,88.97
2019-01-23T13:04:23.423Z,91.42
2019-01-23T13:05:27.679Z,91.90
2019-01-23T13:06:32.027Z,90.10
2019-01-23T13:07:36.028Z,92.90
2019-01-23T13:08:40.191Z,91.45
2019-01-23T13:09:44.109Z,89.40
2019-01-23T13:10:48.107Z,100.00
2019-01-23T13:11:52.106Z,101.33
2019-01-23T13:12:56.558Z,102.10
2019-01-23T13:14:01.387Z,91.32
2019-01-23T13:15:06.144Z,83.20
2019-01-23T13:16:10.301Z,88.37
2019-01-23T13:17:14.211Z,73.55
2019-01-23T13:18:18.148Z,92.22
2019-01-23T13:19:22.662Z,88.75
2019-01-23T13:20:26.958Z,92.30
2019-01-23T13:21:31.058Z,98.92
2019-01-23T13:22:35.424Z,95.25
2019-01-23T13:23:39.586Z,101.05
2019-01-23T13:24:43.495Z,90.75
2019-01-23T13:25:47.493Z,94.22
2019-01-23T13:26:51.718Z,78.05
2019-01-23T13:27:57.288Z,85.38
2019-01-23T13:29:01.323Z,87.25
2019-01-23T13:30:06.676Z,92.27
2019-01-23T13:31:10.600Z,95.25
2019-01-23T13:32:14.547Z,90.40
2019-01-23T13:33:18.847Z,86.47
2019-01-23T13:34:22.784Z,99.22
2019-01-23T13:35:29.590Z,92.75
2019-01-23T13:36:33.512Z,97.15
2019-01-23T13:37:37.436Z,97.62
2019-01-23T13:38:41.375Z,89.67
2019-01-23T13:39:45.295Z,92.00
2019-01-23T13:40:49.490Z,74.70
2019-01-23T13:41:53.742Z,67.17
2019-01-23T13:42:58.043Z,82.50
2019-01-23T13:44:02.045Z,88.25
2019-01-23T13:45:06.381Z,73.28
2019-01-23T13:46:10.383Z,65.20
2019-01-23T13:47:14.304Z,90.38
2019-01-23T13:48:18.308Z,103.02
2019-01-23T13:49:22.567Z,109.92
2019-01-23T13:50:26.776Z,113.17
2019-01-23T13:51:30.778Z,105.37
2019-01-23T13:52:34.775Z,95.77
2019-01-23T13:53:38.710Z,99.90
2019-01-23T13:54:42.985Z,101.15